sensor_id;sensor_type;location;lat;lon;timestamp;pressure;altitude;pressure_sealevel;temperature;humidity
54876;BME280;40764;48.472;8.166;2023-09-30T00:04:55;99097.34;;;16.74;98.33
54876;BME280;40764;48.472;8.166;2023-09-30T00:10:56;99093.97;;;16.55;99.37
54876;BME280;40764;48.472;8.166;2023-09-30T00:16:56;99083.09;;;16.36;99.99
54876;BME280;40764;48.472;8.166;2023-09-30T00:22:56;99082.31;;;16.22;100.00
54876;BME280;40764;48.472;8.166;2023-09-30T00:28:57;99097.38;;;16.38;100.00
54876;BME280;40764;48.472;8.166;2023-09-30T00:34:57;99093.53;;;16.61;99.40
54876;BME280;40764;48.472;8.166;2023-09-30T00:40:57;99095.00;;;16.81;99.09
54876;BME280;40764;48.472;8.166;2023-09-30T00:46:58;99106.44;;;16.97;98.53
54876;BME280;40764;48.472;8.166;2023-09-30T00:52:59;99099.72;;;16.81;99.10
54876;BME280;40764;48.472;8.166;2023-09-30T00:59:00;99100.94;;;16.75;99.63
54876;BME280;40764;48.472;8.166;2023-09-30T01:05:01;99098.47;;;16.51;100.00
54876;BME280;40764;48.472;8.166;2023-09-30T01:11:01;99105.13;;;16.50;100.00
54876;BME280;40764;48.472;8.166;2023-09-30T01:17:02;99095.41;;;16.52;100.00
54876;BME280;40764;48.472;8.166;2023-09-30T01:23:02;99088.75;;;16.53;100.00
54876;BME280;40764;48.472;8.166;2023-09-30T01:29:03;99087.03;;;16.43;100.00
54876;BME280;40764;48.472;8.166;2023-09-30T01:35:04;99100.50;;;16.45;100.00
54876;BME280;40764;48.472;8.166;2023-09-30T01:41:05;99087.28;;;16.33;100.00
54876;BME280;40764;48.472;8.166;2023-09-30T01:47:05;99086.78;;;16.31;100.00
54876;BME280;40764;48.472;8.166;2023-09-30T01:53:06;99098.47;;;16.51;100.00
54876;BME280;40764;48.472;8.166;2023-09-30T01:59:07;99090.28;;;16.46;100.00
54876;BME280;40764;48.472;8.166;2023-09-30T02:05:07;99104.41;;;16.22;100.00
54876;BME280;40764;48.472;8.166;2023-09-30T02:11:08;99098.63;;;16.32;100.00
54876;BME280;40764;48.472;8.166;2023-09-30T02:17:08;99112.81;;;16.39;100.00
54876;BME280;40764;48.472;8.166;2023-09-30T02:23:10;99104.09;;;16.46;100.00
54876;BME280;40764;48.472;8.166;2023-09-30T02:29:13;99101.97;;;16.42;100.00
54876;BME280;40764;48.472;8.166;2023-09-30T02:35:13;99105.09;;;16.27;100.00
54876;BME280;40764;48.472;8.166;2023-09-30T02:41:16;99115.81;;;16.29;100.00
54876;BME280;40764;48.472;8.166;2023-09-30T02:47:17;99115.75;;;16.20;100.00
54876;BME280;40764;48.472;8.166;2023-09-30T02:53:17;99117.81;;;16.37;100.00
54876;BME280;40764;48.472;8.166;2023-09-30T02:59:17;99122.22;;;16.38;100.00
54876;BME280;40764;48.472;8.166;2023-09-30T03:05:19;99128.91;;;16.23;100.00
54876;BME280;40764;48.472;8.166;2023-09-30T03:11:20;99132.13;;;16.39;100.00
54876;BME280;40764;48.472;8.166;2023-09-30T03:17:20;99123.47;;;16.32;100.00
54876;BME280;40764;48.472;8.166;2023-09-30T03:23:21;99128.41;;;16.43;100.00
54876;BME280;40764;48.472;8.166;2023-09-30T03:29:21;99104.34;;;16.35;100.00
54876;BME280;40764;48.472;8.166;2023-09-30T03:35:22;99096.75;;;16.41;100.00
54876;BME280;40764;48.472;8.166;2023-09-30T03:41:24;99090.28;;;16.23;100.00
54876;BME280;40764;48.472;8.166;2023-09-30T03:47:24;99074.00;;;16.35;100.00
54876;BME280;40764;48.472;8.166;2023-09-30T03:53:25;99083.88;;;16.50;100.00
54876;BME280;40764;48.472;8.166;2023-09-30T03:59:26;99096.03;;;16.49;100.00
54876;BME280;40764;48.472;8.166;2023-09-30T04:05:28;99093.81;;;16.37;100.00
54876;BME280;40764;48.472;8.166;2023-09-30T04:11:37;99091.59;;;16.26;100.00
54876;BME280;40764;48.472;8.166;2023-09-30T04:17:38;99096.06;;;16.35;100.00
54876;BME280;40764;48.472;8.166;2023-09-30T04:23:38;99106.34;;;16.43;100.00
54876;BME280;40764;48.472;8.166;2023-09-30T04:29:39;99128.41;;;16.57;100.00
54876;BME280;40764;48.472;8.166;2023-09-30T04:35:39;99118.63;;;16.37;100.00
54876;BME280;40764;48.472;8.166;2023-09-30T04:41:40;99115.19;;;16.32;100.00
54876;BME280;40764;48.472;8.166;2023-09-30T04:47:41;99123.09;;;16.25;100.00
54876;BME280;40764;48.472;8.166;2023-09-30T04:53:41;99142.59;;;16.28;100.00
54876;BME280;40764;48.472;8.166;2023-09-30T04:59:42;99142.72;;;16.46;100.00
54876;BME280;40764;48.472;8.166;2023-09-30T05:05:42;99137.00;;;16.42;100.00
54876;BME280;40764;48.472;8.166;2023-09-30T05:11:43;99146.97;;;16.29;100.00
54876;BME280;40764;48.472;8.166;2023-09-30T05:17:45;99135.81;;;16.34;100.00
54876;BME280;40764;48.472;8.166;2023-09-30T05:23:45;99135.31;;;16.19;100.00
54876;BME280;40764;48.472;8.166;2023-09-30T05:29:46;99129.13;;;16.13;100.00
54876;BME280;40764;48.472;8.166;2023-09-30T05:35:46;99133.06;;;16.34;100.00
54876;BME280;40764;48.472;8.166;2023-09-30T05:41:47;99122.56;;;16.23;100.00
54876;BME280;40764;48.472;8.166;2023-09-30T05:47:47;99139.16;;;16.45;100.00
54876;BME280;40764;48.472;8.166;2023-09-30T05:53:48;99140.13;;;16.27;100.00
54876;BME280;40764;48.472;8.166;2023-09-30T05:59:48;99138.88;;;16.33;100.00
54876;BME280;40764;48.472;8.166;2023-09-30T06:05:50;99147.66;;;16.49;100.00
54876;BME280;40764;48.472;8.166;2023-09-30T06:11:50;99163.03;;;16.77;100.00
54876;BME280;40764;48.472;8.166;2023-09-30T06:17:51;99146.25;;;16.73;100.00
54876;BME280;40764;48.472;8.166;2023-09-30T06:23:52;99160.16;;;16.68;100.00
54876;BME280;40764;48.472;8.166;2023-09-30T06:29:52;99141.22;;;16.76;100.00
54876;BME280;40764;48.472;8.166;2023-09-30T06:35:53;99156.16;;;16.97;99.23
54876;BME280;40764;48.472;8.166;2023-09-30T06:41:53;99169.78;;;16.93;98.84
54876;BME280;40764;48.472;8.166;2023-09-30T06:47:53;99185.50;;;17.07;98.40
54876;BME280;40764;48.472;8.166;2023-09-30T06:53:55;99193.47;;;17.08;99.73
54876;BME280;40764;48.472;8.166;2023-09-30T06:59:55;99194.78;;;17.11;99.04
54876;BME280;40764;48.472;8.166;2023-09-30T07:05:56;99175.34;;;17.24;98.14
54876;BME280;40764;48.472;8.166;2023-09-30T07:11:57;99186.03;;;17.40;96.82
54876;BME280;40764;48.472;8.166;2023-09-30T07:17:57;99194.00;;;17.41;96.49
54876;BME280;40764;48.472;8.166;2023-09-30T07:23:57;99204.50;;;17.61;95.92
54876;BME280;40764;48.472;8.166;2023-09-30T07:29:59;99216.91;;;17.64;95.51
54876;BME280;40764;48.472;8.166;2023-09-30T07:35:59;99216.19;;;17.81;94.87
54876;BME280;40764;48.472;8.166;2023-09-30T07:41:59;99213.00;;;17.96;94.38
54876;BME280;40764;48.472;8.166;2023-09-30T07:48:00;99212.53;;;18.03;94.15
54876;BME280;40764;48.472;8.166;2023-09-30T07:54:05;99211.81;;;18.28;90.78
54876;BME280;40764;48.472;8.166;2023-09-30T08:00:06;99209.84;;;18.29;91.58
54876;BME280;40764;48.472;8.166;2023-09-30T08:06:15;99200.09;;;18.48;90.28
54876;BME280;40764;48.472;8.166;2023-09-30T08:12:15;99195.09;;;18.59;89.13
54876;BME280;40764;48.472;8.166;2023-09-30T08:18:16;99205.56;;;18.71;88.28
54876;BME280;40764;48.472;8.166;2023-09-30T08:24:16;99205.25;;;18.81;87.96
54876;BME280;40764;48.472;8.166;2023-09-30T08:30:17;99201.00;;;18.83;87.03
54876;BME280;40764;48.472;8.166;2023-09-30T08:36:18;99202.63;;;19.10;85.26
54876;BME280;40764;48.472;8.166;2023-09-30T08:42:19;99208.16;;;19.19;84.33
54876;BME280;40764;48.472;8.166;2023-09-30T08:48:28;99216.75;;;19.35;84.40
54876;BME280;40764;48.472;8.166;2023-09-30T08:54:30;99222.63;;;19.33;83.65
54876;BME280;40764;48.472;8.166;2023-09-30T09:00:31;99217.59;;;19.27;83.39
54876;BME280;40764;48.472;8.166;2023-09-30T09:06:31;99212.22;;;19.30;80.82
54876;BME280;40764;48.472;8.166;2023-09-30T09:12:33;99205.97;;;19.59;81.89
54876;BME280;40764;48.472;8.166;2023-09-30T09:18:35;99200.22;;;19.82;81.28
54876;BME280;40764;48.472;8.166;2023-09-30T09:24:38;99198.84;;;19.96;81.79
54876;BME280;40764;48.472;8.166;2023-09-30T09:30:42;99192.19;;;20.18;78.02
54876;BME280;40764;48.472;8.166;2023-09-30T09:36:44;99176.06;;;20.11;76.29
54876;BME280;40764;48.472;8.166;2023-09-30T09:42:46;99162.13;;;20.20;75.62
54876;BME280;40764;48.472;8.166;2023-09-30T09:48:46;99162.25;;;20.32;72.54
54876;BME280;40764;48.472;8.166;2023-09-30T09:54:48;99162.28;;;20.24;74.47
54876;BME280;40764;48.472;8.166;2023-09-30T10:00:50;99176.69;;;20.47;72.73
54876;BME280;40764;48.472;8.166;2023-09-30T10:06:53;99181.00;;;20.35;71.56
54876;BME280;40764;48.472;8.166;2023-09-30T10:12:56;99177.13;;;20.28;73.47
54876;BME280;40764;48.472;8.166;2023-09-30T10:19:20;99176.00;;;20.20;74.34
54876;BME280;40764;48.472;8.166;2023-09-30T10:25:35;99170.31;;;20.25;75.53
54876;BME280;40764;48.472;8.166;2023-09-30T10:31:49;99172.91;;;20.51;73.15
54876;BME280;40764;48.472;8.166;2023-09-30T10:37:49;99172.59;;;20.73;72.49
54876;BME280;40764;48.472;8.166;2023-09-30T10:43:50;99172.00;;;21.22;67.95
54876;BME280;40764;48.472;8.166;2023-09-30T10:49:50;99166.31;;;21.51;63.41
54876;BME280;40764;48.472;8.166;2023-09-30T10:55:55;99165.09;;;21.28;65.31
54876;BME280;40764;48.472;8.166;2023-09-30T11:01:56;99160.00;;;21.09;64.47
54876;BME280;40764;48.472;8.166;2023-09-30T11:07:57;99159.47;;;21.16;66.54
54876;BME280;40764;48.472;8.166;2023-09-30T11:14:01;99148.88;;;21.30;66.93
54876;BME280;40764;48.472;8.166;2023-09-30T11:20:03;99147.66;;;21.19;67.14
54876;BME280;40764;48.472;8.166;2023-09-30T11:26:06;99136.47;;;21.27;64.61
54876;BME280;40764;48.472;8.166;2023-09-30T11:32:06;99139.31;;;21.52;64.51
54876;BME280;40764;48.472;8.166;2023-09-30T11:38:07;99130.97;;;21.52;64.87
54876;BME280;40764;48.472;8.166;2023-09-30T11:44:09;99131.50;;;21.33;65.90
54876;BME280;40764;48.472;8.166;2023-09-30T11:50:15;99132.94;;;21.51;66.05
54876;BME280;40764;48.472;8.166;2023-09-30T11:56:16;99137.22;;;21.49;66.28
54876;BME280;40764;48.472;8.166;2023-09-30T12:02:16;99129.81;;;21.65;64.69
54876;BME280;40764;48.472;8.166;2023-09-30T12:08:17;99139.66;;;21.50;61.39
54876;BME280;40764;48.472;8.166;2023-09-30T12:14:17;99130.75;;;21.57;60.30
54876;BME280;40764;48.472;8.166;2023-09-30T12:20:18;99143.78;;;22.14;58.81
54876;BME280;40764;48.472;8.166;2023-09-30T12:26:18;99130.03;;;22.45;55.84
54876;BME280;40764;48.472;8.166;2023-09-30T12:32:20;99129.63;;;22.31;55.38
54876;BME280;40764;48.472;8.166;2023-09-30T12:38:20;99112.25;;;22.10;57.34
54876;BME280;40764;48.472;8.166;2023-09-30T12:44:20;99118.75;;;22.54;55.44
54876;BME280;40764;48.472;8.166;2023-09-30T12:50:22;99111.91;;;22.64;54.74
54876;BME280;40764;48.472;8.166;2023-09-30T12:56:23;99114.19;;;22.74;54.16
54876;BME280;40764;48.472;8.166;2023-09-30T13:02:23;99102.94;;;22.70;54.13
54876;BME280;40764;48.472;8.166;2023-09-30T13:08:24;99107.84;;;22.61;53.76
54876;BME280;40764;48.472;8.166;2023-09-30T13:14:24;99112.25;;;22.10;56.92
54876;BME280;40764;48.472;8.166;2023-09-30T13:20:24;99109.38;;;22.59;57.42
54876;BME280;40764;48.472;8.166;2023-09-30T13:26:25;99093.59;;;22.78;56.91
54876;BME280;40764;48.472;8.166;2023-09-30T13:32:26;99097.88;;;22.48;57.25
54876;BME280;40764;48.472;8.166;2023-09-30T13:38:26;99105.72;;;22.18;59.07
54876;BME280;40764;48.472;8.166;2023-09-30T13:44:26;99099.47;;;22.09;57.98
54876;BME280;40764;48.472;8.166;2023-09-30T13:50:27;99091.44;;;22.72;56.46
54876;BME280;40764;48.472;8.166;2023-09-30T13:56:27;99096.31;;;23.03;55.48
54876;BME280;40764;48.472;8.166;2023-09-30T14:02:27;99093.22;;;23.20;54.07
54876;BME280;40764;48.472;8.166;2023-09-30T14:08:28;99082.78;;;23.33;53.89
54876;BME280;40764;48.472;8.166;2023-09-30T14:14:28;99072.50;;;23.21;53.64
54876;BME280;40764;48.472;8.166;2023-09-30T14:20:28;99067.16;;;23.00;54.96
54876;BME280;40764;48.472;8.166;2023-09-30T14:26:29;99055.84;;;22.93;54.75
54876;BME280;40764;48.472;8.166;2023-09-30T14:32:29;99062.38;;;23.44;53.44
54876;BME280;40764;48.472;8.166;2023-09-30T14:38:30;99040.38;;;23.11;53.69
54876;BME280;40764;48.472;8.166;2023-09-30T14:44:30;99040.25;;;22.64;52.74
54876;BME280;40764;48.472;8.166;2023-09-30T14:50:30;99040.41;;;23.43;53.53
54876;BME280;40764;48.472;8.166;2023-09-30T14:56:31;99044.63;;;23.68;51.97
54876;BME280;40764;48.472;8.166;2023-09-30T15:02:31;99041.53;;;24.05;52.86
54876;BME280;40764;48.472;8.166;2023-09-30T15:08:32;99036.38;;;24.07;50.73
54876;BME280;40764;48.472;8.166;2023-09-30T15:14:33;99037.69;;;24.13;52.59
54876;BME280;40764;48.472;8.166;2023-09-30T15:20:39;99047.47;;;24.03;51.00
54876;BME280;40764;48.472;8.166;2023-09-30T15:26:43;99051.75;;;23.66;50.15
54876;BME280;40764;48.472;8.166;2023-09-30T15:32:44;99062.09;;;23.49;49.88
54876;BME280;40764;48.472;8.166;2023-09-30T15:38:44;99062.53;;;23.52;52.08
54876;BME280;40764;48.472;8.166;2023-09-30T15:44:46;99067.38;;;23.39;52.57
54876;BME280;40764;48.472;8.166;2023-09-30T15:50:47;99068.13;;;23.52;53.96
54876;BME280;40764;48.472;8.166;2023-09-30T15:56:47;99069.94;;;22.72;62.30
54876;BME280;40764;48.472;8.166;2023-09-30T16:02:48;99073.69;;;22.24;65.14
54876;BME280;40764;48.472;8.166;2023-09-30T16:08:48;99074.63;;;22.16;64.33
54876;BME280;40764;48.472;8.166;2023-09-30T16:14:49;99082.53;;;22.02;64.26
54876;BME280;40764;48.472;8.166;2023-09-30T16:20:50;99084.16;;;21.66;66.49
54876;BME280;40764;48.472;8.166;2023-09-30T16:26:50;99081.59;;;21.49;67.17
54876;BME280;40764;48.472;8.166;2023-09-30T16:32:50;99072.88;;;20.93;71.52
54876;BME280;40764;48.472;8.166;2023-09-30T16:38:51;99090.97;;;20.16;74.96
54876;BME280;40764;48.472;8.166;2023-09-30T16:44:51;99099.31;;;19.57;77.34
54876;BME280;40764;48.472;8.166;2023-09-30T16:50:52;99112.13;;;19.23;80.27
54876;BME280;40764;48.472;8.166;2023-09-30T16:56:52;99098.81;;;18.99;80.08
54876;BME280;40764;48.472;8.166;2023-09-30T17:02:53;99111.56;;;18.66;81.45
54876;BME280;40764;48.472;8.166;2023-09-30T17:08:54;99110.56;;;18.62;80.41
54876;BME280;40764;48.472;8.166;2023-09-30T17:14:54;99106.00;;;18.31;82.25
54876;BME280;40764;48.472;8.166;2023-09-30T17:20:54;99108.66;;;17.79;84.32
54876;BME280;40764;48.472;8.166;2023-09-30T17:26:55;99105.72;;;17.76;84.57
54876;BME280;40764;48.472;8.166;2023-09-30T17:32:55;99101.03;;;17.45;85.68
54876;BME280;40764;48.472;8.166;2023-09-30T17:38:55;99107.53;;;17.49;85.44
54876;BME280;40764;48.472;8.166;2023-09-30T17:44:56;99108.88;;;17.21;86.56
54876;BME280;40764;48.472;8.166;2023-09-30T17:50:56;99109.78;;;17.08;87.33
54876;BME280;40764;48.472;8.166;2023-09-30T17:56:56;99114.69;;;16.66;88.28
54876;BME280;40764;48.472;8.166;2023-09-30T18:02:57;99110.66;;;16.50;89.83
54876;BME280;40764;48.472;8.166;2023-09-30T18:08:57;99116.50;;;16.34;90.49
54876;BME280;40764;48.472;8.166;2023-09-30T18:14:58;99127.28;;;16.22;90.55
54876;BME280;40764;48.472;8.166;2023-09-30T18:20:59;99135.06;;;16.06;91.64
54876;BME280;40764;48.472;8.166;2023-09-30T18:27:00;99146.81;;;15.98;92.17
54876;BME280;40764;48.472;8.166;2023-09-30T18:33:00;99152.13;;;15.67;93.59
54876;BME280;40764;48.472;8.166;2023-09-30T18:39:02;99152.34;;;15.71;93.33
54876;BME280;40764;48.472;8.166;2023-09-30T18:45:03;99157.59;;;15.54;94.02
54876;BME280;40764;48.472;8.166;2023-09-30T18:51:04;99163.28;;;15.62;94.01
54876;BME280;40764;48.472;8.166;2023-09-30T18:57:04;99168.00;;;15.57;93.73
54876;BME280;40764;48.472;8.166;2023-09-30T19:03:05;99166.78;;;15.35;93.75
54876;BME280;40764;48.472;8.166;2023-09-30T19:09:08;99172.03;;;15.18;94.01
54876;BME280;40764;48.472;8.166;2023-09-30T19:15:09;99175.50;;;14.91;95.97
54876;BME280;40764;48.472;8.166;2023-09-30T19:21:09;99168.47;;;14.99;96.13
54876;BME280;40764;48.472;8.166;2023-09-30T19:27:10;99167.16;;;14.96;95.97
54876;BME280;40764;48.472;8.166;2023-09-30T19:33:11;99172.06;;;14.99;95.18
54876;BME280;40764;48.472;8.166;2023-09-30T19:39:11;99188.88;;;14.98;94.99
54876;BME280;40764;48.472;8.166;2023-09-30T19:45:13;99181.19;;;14.81;95.58
54876;BME280;40764;48.472;8.166;2023-09-30T19:51:21;99188.41;;;14.58;95.86
54876;BME280;40764;48.472;8.166;2023-09-30T19:57:22;99196.56;;;14.63;96.59
54876;BME280;40764;48.472;8.166;2023-09-30T20:03:22;99197.34;;;14.26;96.75
54876;BME280;40764;48.472;8.166;2023-09-30T20:09:22;99198.53;;;14.20;96.69
54876;BME280;40764;48.472;8.166;2023-09-30T20:15:23;99196.16;;;14.32;96.85
54876;BME280;40764;48.472;8.166;2023-09-30T20:21:23;99186.88;;;14.28;95.81
54876;BME280;40764;48.472;8.166;2023-09-30T20:27:25;99185.72;;;14.10;97.69
54876;BME280;40764;48.472;8.166;2023-09-30T20:33:25;99188.41;;;14.15;96.95
54876;BME280;40764;48.472;8.166;2023-09-30T20:39:25;99185.56;;;14.02;97.05
54876;BME280;40764;48.472;8.166;2023-09-30T20:45:25;99183.53;;;13.88;97.47
54876;BME280;40764;48.472;8.166;2023-09-30T20:51:26;99177.69;;;13.95;97.70
54876;BME280;40764;48.472;8.166;2023-09-30T20:57:26;99176.94;;;13.89;97.09
54876;BME280;40764;48.472;8.166;2023-09-30T21:03:26;99186.16;;;13.99;96.76
54876;BME280;40764;48.472;8.166;2023-09-30T21:09:27;99184.09;;;13.85;96.66
54876;BME280;40764;48.472;8.166;2023-09-30T21:15:27;99184.34;;;13.65;97.76
54876;BME280;40764;48.472;8.166;2023-09-30T21:21:28;99202.69;;;13.70;97.17
54876;BME280;40764;48.472;8.166;2023-09-30T21:27:29;99205.97;;;13.72;97.26
54876;BME280;40764;48.472;8.166;2023-09-30T21:33:30;99210.72;;;13.37;97.66
54876;BME280;40764;48.472;8.166;2023-09-30T21:39:30;99221.25;;;13.25;98.66
54876;BME280;40764;48.472;8.166;2023-09-30T21:45:30;99226.09;;;13.38;98.88
54876;BME280;40764;48.472;8.166;2023-09-30T21:51:30;99228.97;;;13.23;98.25
54876;BME280;40764;48.472;8.166;2023-09-30T21:57:31;99230.31;;;13.25;97.97
54876;BME280;40764;48.472;8.166;2023-09-30T22:03:31;99234.09;;;13.29;98.01
54876;BME280;40764;48.472;8.166;2023-09-30T22:09:31;99225.16;;;13.14;97.74
54876;BME280;40764;48.472;8.166;2023-09-30T22:15:35;99231.25;;;13.11;97.65
54876;BME280;40764;48.472;8.166;2023-09-30T22:21:36;99222.22;;;13.05;97.48
54876;BME280;40764;48.472;8.166;2023-09-30T22:27:36;99212.59;;;12.74;99.06
54876;BME280;40764;48.472;8.166;2023-09-30T22:33:39;99224.59;;;12.83;98.55
54876;BME280;40764;48.472;8.166;2023-09-30T22:39:40;99230.84;;;12.88;98.82
54876;BME280;40764;48.472;8.166;2023-09-30T22:45:40;99231.47;;;12.80;97.95
54876;BME280;40764;48.472;8.166;2023-09-30T22:51:42;99232.41;;;12.60;99.08
54876;BME280;40764;48.472;8.166;2023-09-30T22:57:43;99237.84;;;12.65;97.64
54876;BME280;40764;48.472;8.166;2023-09-30T23:03:44;99232.66;;;12.64;98.69
54876;BME280;40764;48.472;8.166;2023-09-30T23:09:46;99226.59;;;12.67;98.37
54876;BME280;40764;48.472;8.166;2023-09-30T23:15:46;99223.97;;;12.52;98.28
54876;BME280;40764;48.472;8.166;2023-09-30T23:21:47;99211.91;;;12.53;98.44
54876;BME280;40764;48.472;8.166;2023-09-30T23:27:48;99216.59;;;12.47;98.74
54876;BME280;40764;48.472;8.166;2023-09-30T23:33:50;99218.53;;;12.41;98.62
54876;BME280;40764;48.472;8.166;2023-09-30T23:39:50;99225.91;;;12.46;98.09
54876;BME280;40764;48.472;8.166;2023-09-30T23:45:50;99228.09;;;12.49;98.46
54876;BME280;40764;48.472;8.166;2023-09-30T23:51:53;99225.56;;;12.58;98.56
54876;BME280;40764;48.472;8.166;2023-09-30T23:57:54;99224.88;;;12.32;97.83
